sensor_id;sensor_type;location;lat;lon;timestamp;pressure;altitude;pressure_sealevel;temperature;humidity
36258;BME280;22294;52.044;4.582;2023-03-18T00:00:38;76096.00;;;-144.37;97.15
36258;BME280;22294;52.044;4.582;2023-03-18T00:03:03;76091.91;;;-144.37;96.89
36258;BME280;22294;52.044;4.582;2023-03-18T00:05:28;76100.09;;;-144.37;96.81
36258;BME280;22294;52.044;4.582;2023-03-18T00:07:55;76112.38;;;-144.37;96.85
36258;BME280;22294;52.044;4.582;2023-03-18T00:10:21;76126.69;;;-144.37;97.08
36258;BME280;22294;52.044;4.582;2023-03-18T00:12:46;76138.97;;;-144.37;97.45
36258;BME280;22294;52.044;4.582;2023-03-18T00:15:13;76151.22;;;-144.37;97.71
36258;BME280;22294;52.044;4.582;2023-03-18T00:17:40;76157.38;;;-144.37;98.34
36258;BME280;22294;52.044;4.582;2023-03-18T00:20:07;76157.38;;;-144.37;98.69
36258;BME280;22294;52.044;4.582;2023-03-18T00:22:34;76161.47;;;-144.37;98.75
36258;BME280;22294;52.044;4.582;2023-03-18T00:25:01;76161.47;;;-144.37;98.92
36258;BME280;22294;52.044;4.582;2023-03-18T00:27:27;76167.59;;;-144.37;98.94
36258;BME280;22294;52.044;4.582;2023-03-18T00:29:52;76169.63;;;-144.37;99.49
36258;BME280;22294;52.044;4.582;2023-03-18T00:32:18;76169.63;;;-144.37;100.00
36258;BME280;22294;52.044;4.582;2023-03-18T00:34:44;76183.94;;;-144.37;100.00
36258;BME280;22294;52.044;4.582;2023-03-18T00:37:10;76175.78;;;-144.37;100.00
36258;BME280;22294;52.044;4.582;2023-03-18T00:39:43;76175.78;;;-144.37;100.00
36258;BME280;22294;52.044;4.582;2023-03-18T00:42:10;76183.94;;;-144.37;100.00
36258;BME280;22294;52.044;4.582;2023-03-18T00:44:36;76177.81;;;-144.37;100.00
36258;BME280;22294;52.044;4.582;2023-03-18T00:47:02;76173.72;;;-144.37;100.00
36258;BME280;22294;52.044;4.582;2023-03-18T00:49:28;76169.63;;;-144.37;100.00
36258;BME280;22294;52.044;4.582;2023-03-18T00:51:54;76167.59;;;-144.37;100.00
36258;BME280;22294;52.044;4.582;2023-03-18T00:54:19;76161.47;;;-144.37;100.00
36258;BME280;22294;52.044;4.582;2023-03-18T00:56:46;76161.47;;;-144.37;100.00
36258;BME280;22294;52.044;4.582;2023-03-18T00:59:12;76159.41;;;-144.37;100.00
36258;BME280;22294;52.044;4.582;2023-03-18T01:01:38;76159.41;;;-144.37;100.00
36258;BME280;22294;52.044;4.582;2023-03-18T01:04:04;76155.31;;;-144.37;100.00
36258;BME280;22294;52.044;4.582;2023-03-18T01:06:34;76157.38;;;-144.37;100.00
36258;BME280;22294;52.044;4.582;2023-03-18T01:09:00;76155.31;;;-144.37;100.00
36258;BME280;22294;52.044;4.582;2023-03-18T01:11:27;76155.31;;;-144.37;100.00
36258;BME280;22294;52.044;4.582;2023-03-18T01:13:53;76157.38;;;-144.37;100.00
36258;BME280;22294;52.044;4.582;2023-03-18T01:16:19;76163.50;;;-144.37;100.00
36258;BME280;22294;52.044;4.582;2023-03-18T01:18:45;76169.63;;;-144.37;100.00
36258;BME280;22294;52.044;4.582;2023-03-18T01:21:12;76173.72;;;-144.37;100.00
36258;BME280;22294;52.044;4.582;2023-03-18T01:23:38;76181.91;;;-144.37;100.00
36258;BME280;22294;52.044;4.582;2023-03-18T01:26:04;76188.03;;;-144.37;100.00
36258;BME280;22294;52.044;4.582;2023-03-18T01:28:30;76188.03;;;-144.37;100.00
36258;BME280;22294;52.044;4.582;2023-03-18T01:30:55;76186.00;;;-144.37;100.00
36258;BME280;22294;52.044;4.582;2023-03-18T01:33:24;76190.09;;;-144.37;100.00
36258;BME280;22294;52.044;4.582;2023-03-18T01:35:58;76186.00;;;-144.37;100.00
36258;BME280;22294;52.044;4.582;2023-03-18T01:38:25;76183.94;;;-144.37;100.00
36258;BME280;22294;52.044;4.582;2023-03-18T01:40:54;76181.91;;;-144.37;100.00
36258;BME280;22294;52.044;4.582;2023-03-18T01:43:23;76173.72;;;-144.37;100.00
36258;BME280;22294;52.044;4.582;2023-03-18T01:45:54;76175.78;;;-144.37;100.00
36258;BME280;22294;52.044;4.582;2023-03-18T01:48:27;76171.69;;;-144.37;100.00
36258;BME280;22294;52.044;4.582;2023-03-18T01:50:59;76163.50;;;-144.37;100.00
36258;BME280;22294;52.044;4.582;2023-03-18T01:53:30;76161.47;;;-144.37;100.00
36258;BME280;22294;52.044;4.582;2023-03-18T01:55:57;76157.38;;;-144.37;100.00
36258;BME280;22294;52.044;4.582;2023-03-18T01:58:33;76159.41;;;-144.37;100.00
36258;BME280;22294;52.044;4.582;2023-03-18T02:01:04;76151.22;;;-144.37;100.00
36258;BME280;22294;52.044;4.582;2023-03-18T02:03:32;76151.22;;;-144.37;100.00
36258;BME280;22294;52.044;4.582;2023-03-18T02:05:58;76151.22;;;-144.37;100.00
36258;BME280;22294;52.044;4.582;2023-03-18T02:08:24;76153.28;;;-144.37;100.00
36258;BME280;22294;52.044;4.582;2023-03-18T02:10:49;76161.47;;;-144.37;100.00
36258;BME280;22294;52.044;4.582;2023-03-18T02:13:15;76157.38;;;-144.37;100.00
36258;BME280;22294;52.044;4.582;2023-03-18T02:15:50;76165.53;;;-144.37;100.00
36258;BME280;22294;52.044;4.582;2023-03-18T02:18:27;76167.59;;;-144.37;100.00
36258;BME280;22294;52.044;4.582;2023-03-18T02:24:01;76165.53;;;-144.37;100.00
36258;BME280;22294;52.044;4.582;2023-03-18T02:26:42;76157.38;;;-144.37;100.00
36258;BME280;22294;52.044;4.582;2023-03-18T02:29:11;76161.47;;;-144.37;100.00
36258;BME280;22294;52.044;4.582;2023-03-18T02:31:40;76173.72;;;-144.37;100.00
36258;BME280;22294;52.044;4.582;2023-03-18T02:34:08;76173.72;;;-144.37;100.00
36258;BME280;22294;52.044;4.582;2023-03-18T02:36:34;76181.91;;;-144.37;100.00
36258;BME280;22294;52.044;4.582;2023-03-18T02:38:59;76177.81;;;-144.37;100.00
36258;BME280;22294;52.044;4.582;2023-03-18T02:41:28;76183.94;;;-144.37;100.00
36258;BME280;22294;52.044;4.582;2023-03-18T02:43:56;76173.72;;;-144.37;100.00
36258;BME280;22294;52.044;4.582;2023-03-18T02:49:10;76171.69;;;-144.37;100.00
36258;BME280;22294;52.044;4.582;2023-03-18T02:51:37;76169.63;;;-144.37;100.00
36258;BME280;22294;52.044;4.582;2023-03-18T02:54:10;76171.69;;;-144.37;100.00
36258;BME280;22294;52.044;4.582;2023-03-18T02:56:38;76171.69;;;-144.37;100.00
36258;BME280;22294;52.044;4.582;2023-03-18T02:59:03;76175.78;;;-144.37;100.00
36258;BME280;22294;52.044;4.582;2023-03-18T03:01:30;76186.00;;;-144.37;100.00
36258;BME280;22294;52.044;4.582;2023-03-18T03:03:56;76186.00;;;-144.37;100.00
36258;BME280;22294;52.044;4.582;2023-03-18T03:06:21;76186.00;;;-144.37;100.00
36258;BME280;22294;52.044;4.582;2023-03-18T03:08:47;76186.00;;;-144.37;100.00
36258;BME280;22294;52.044;4.582;2023-03-18T03:11:12;76188.03;;;-144.37;100.00
36258;BME280;22294;52.044;4.582;2023-03-18T03:13:40;76188.03;;;-144.37;100.00
36258;BME280;22294;52.044;4.582;2023-03-18T03:16:06;76188.03;;;-144.37;100.00
36258;BME280;22294;52.044;4.582;2023-03-18T03:18:32;76183.94;;;-144.37;100.00
36258;BME280;22294;52.044;4.582;2023-03-18T03:21:00;76179.88;;;-144.37;100.00
36258;BME280;22294;52.044;4.582;2023-03-18T03:23:25;76177.81;;;-144.37;100.00
36258;BME280;22294;52.044;4.582;2023-03-18T03:25:51;76171.69;;;-144.37;100.00
36258;BME280;22294;52.044;4.582;2023-03-18T03:28:16;76163.50;;;-144.37;100.00
36258;BME280;22294;52.044;4.582;2023-03-18T03:30:43;76165.53;;;-144.37;100.00
36258;BME280;22294;52.044;4.582;2023-03-18T03:33:08;76165.53;;;-144.37;100.00
36258;BME280;22294;52.044;4.582;2023-03-18T03:35:34;76161.47;;;-144.37;100.00
36258;BME280;22294;52.044;4.582;2023-03-18T03:38:00;76163.50;;;-144.37;100.00
36258;BME280;22294;52.044;4.582;2023-03-18T03:40:26;76161.47;;;-144.37;100.00
36258;BME280;22294;52.044;4.582;2023-03-18T03:42:52;76161.47;;;-144.37;100.00
36258;BME280;22294;52.044;4.582;2023-03-18T03:45:18;76161.47;;;-144.37;100.00
36258;BME280;22294;52.044;4.582;2023-03-18T03:47:45;76153.28;;;-144.37;100.00
36258;BME280;22294;52.044;4.582;2023-03-18T03:50:12;76159.41;;;-144.37;100.00
36258;BME280;22294;52.044;4.582;2023-03-18T03:52:38;76159.41;;;-144.37;100.00
36258;BME280;22294;52.044;4.582;2023-03-18T03:55:05;76165.53;;;-144.37;100.00
36258;BME280;22294;52.044;4.582;2023-03-18T03:57:31;76165.53;;;-144.37;100.00
36258;BME280;22294;52.044;4.582;2023-03-18T03:59:56;76175.78;;;-144.37;100.00
36258;BME280;22294;52.044;4.582;2023-03-18T04:02:22;76179.88;;;-144.37;100.00
36258;BME280;22294;52.044;4.582;2023-03-18T04:04:49;76175.78;;;-144.37;100.00
36258;BME280;22294;52.044;4.582;2023-03-18T04:07:14;76177.81;;;-144.37;100.00
36258;BME280;22294;52.044;4.582;2023-03-18T04:09:40;76183.94;;;-144.37;100.00
36258;BME280;22294;52.044;4.582;2023-03-18T04:12:06;76190.09;;;-144.37;100.00
36258;BME280;22294;52.044;4.582;2023-03-18T04:14:32;76190.09;;;-144.37;100.00
36258;BME280;22294;52.044;4.582;2023-03-18T04:16:57;76196.22;;;-144.37;100.00
36258;BME280;22294;52.044;4.582;2023-03-18T04:19:24;76194.19;;;-144.37;100.00
36258;BME280;22294;52.044;4.582;2023-03-18T04:21:54;76200.31;;;-144.37;100.00
36258;BME280;22294;52.044;4.582;2023-03-18T04:24:20;76202.38;;;-144.37;100.00
36258;BME280;22294;52.044;4.582;2023-03-18T04:26:46;76208.50;;;-144.37;100.00
36258;BME280;22294;52.044;4.582;2023-03-18T04:29:12;76218.72;;;-144.37;100.00
36258;BME280;22294;52.044;4.582;2023-03-18T04:31:37;76222.81;;;-144.37;100.00
36258;BME280;22294;52.044;4.582;2023-03-18T04:34:03;76220.75;;;-144.37;100.00
36258;BME280;22294;52.044;4.582;2023-03-18T04:36:28;76231.00;;;-144.37;100.00
36258;BME280;22294;52.044;4.582;2023-03-18T04:38:54;76239.16;;;-144.37;100.00
36258;BME280;22294;52.044;4.582;2023-03-18T04:41:20;76241.22;;;-144.37;100.00
36258;BME280;22294;52.044;4.582;2023-03-18T04:43:47;76247.34;;;-144.37;100.00
36258;BME280;22294;52.044;4.582;2023-03-18T04:46:13;76255.53;;;-144.37;100.00
36258;BME280;22294;52.044;4.582;2023-03-18T04:48:38;76267.81;;;-144.37;100.00
36258;BME280;22294;52.044;4.582;2023-03-18T04:51:04;76276.00;;;-144.37;100.00
36258;BME280;22294;52.044;4.582;2023-03-18T04:53:30;76271.91;;;-144.37;100.00
36258;BME280;22294;52.044;4.582;2023-03-18T04:55:55;76267.81;;;-144.37;100.00
36258;BME280;22294;52.044;4.582;2023-03-18T04:58:21;76257.59;;;-144.37;100.00
36258;BME280;22294;52.044;4.582;2023-03-18T05:00:47;76259.63;;;-144.37;100.00
36258;BME280;22294;52.044;4.582;2023-03-18T05:03:13;76261.66;;;-144.37;100.00
36258;BME280;22294;52.044;4.582;2023-03-18T05:05:38;76263.72;;;-144.37;100.00
36258;BME280;22294;52.044;4.582;2023-03-18T05:08:04;76253.50;;;-144.37;100.00
36258;BME280;22294;52.044;4.582;2023-03-18T05:10:29;76263.72;;;-144.37;100.00
36258;BME280;22294;52.044;4.582;2023-03-18T05:12:55;76269.84;;;-144.37;100.00
36258;BME280;22294;52.044;4.582;2023-03-18T05:15:20;76273.94;;;-144.37;100.00
36258;BME280;22294;52.044;4.582;2023-03-18T05:17:46;76276.00;;;-144.37;100.00
36258;BME280;22294;52.044;4.582;2023-03-18T05:20:12;76280.06;;;-144.37;100.00
36258;BME280;22294;52.044;4.582;2023-03-18T05:22:38;76278.03;;;-144.37;100.00
36258;BME280;22294;52.044;4.582;2023-03-18T05:25:05;76276.00;;;-144.37;100.00
36258;BME280;22294;52.044;4.582;2023-03-18T05:27:32;76278.03;;;-144.37;100.00
36258;BME280;22294;52.044;4.582;2023-03-18T05:29:57;76278.03;;;-144.37;100.00
36258;BME280;22294;52.044;4.582;2023-03-18T05:32:23;76284.16;;;-144.37;100.00
36258;BME280;22294;52.044;4.582;2023-03-18T05:34:48;76290.31;;;-144.37;100.00
36258;BME280;22294;52.044;4.582;2023-03-18T05:37:14;76282.13;;;-144.37;100.00
36258;BME280;22294;52.044;4.582;2023-03-18T05:39:40;76288.25;;;-144.37;100.00
36258;BME280;22294;52.044;4.582;2023-03-18T05:42:06;76298.47;;;-144.37;100.00
36258;BME280;22294;52.044;4.582;2023-03-18T05:44:33;76292.34;;;-144.37;100.00
36258;BME280;22294;52.044;4.582;2023-03-18T05:46:58;76294.41;;;-144.37;100.00
36258;BME280;22294;52.044;4.582;2023-03-18T05:49:25;76296.44;;;-144.37;100.00
36258;BME280;22294;52.044;4.582;2023-03-18T05:51:51;76298.47;;;-144.37;100.00
36258;BME280;22294;52.044;4.582;2023-03-18T05:54:18;76294.41;;;-144.37;100.00
36258;BME280;22294;52.044;4.582;2023-03-18T05:56:44;76292.34;;;-144.37;100.00
36258;BME280;22294;52.044;4.582;2023-03-18T05:59:12;76284.16;;;-144.37;100.00
36258;BME280;22294;52.044;4.582;2023-03-18T06:01:39;76292.34;;;-144.37;100.00
36258;BME280;22294;52.044;4.582;2023-03-18T06:04:06;76294.41;;;-144.37;100.00
36258;BME280;22294;52.044;4.582;2023-03-18T06:06:33;76300.53;;;-144.37;100.00
36258;BME280;22294;52.044;4.582;2023-03-18T06:08:59;76302.56;;;-144.37;100.00
36258;BME280;22294;52.044;4.582;2023-03-18T06:11:25;76312.81;;;-144.37;100.00
36258;BME280;22294;52.044;4.582;2023-03-18T06:13:50;76318.94;;;-144.37;100.00
36258;BME280;22294;52.044;4.582;2023-03-18T06:16:16;76325.06;;;-144.37;100.00
36258;BME280;22294;52.044;4.582;2023-03-18T06:18:41;76333.25;;;-144.37;100.00
36258;BME280;22294;52.044;4.582;2023-03-18T06:21:08;76337.34;;;-144.37;100.00
36258;BME280;22294;52.044;4.582;2023-03-18T06:23:34;76341.44;;;-144.37;100.00
36258;BME280;22294;52.044;4.582;2023-03-18T06:26:00;76343.47;;;-144.37;100.00
36258;BME280;22294;52.044;4.582;2023-03-18T06:28:25;76343.47;;;-144.37;100.00
36258;BME280;22294;52.044;4.582;2023-03-18T06:30:54;76357.78;;;-144.37;100.00
36258;BME280;22294;52.044;4.582;2023-03-18T06:33:19;76351.66;;;-144.37;100.00
36258;BME280;22294;52.044;4.582;2023-03-18T06:35:47;76345.53;;;-144.37;100.00
36258;BME280;22294;52.044;4.582;2023-03-18T06:38:12;76343.47;;;-144.37;100.00
36258;BME280;22294;52.044;4.582;2023-03-18T06:40:38;76349.63;;;-144.37;100.00
36258;BME280;22294;52.044;4.582;2023-03-18T06:43:04;76347.56;;;-144.37;100.00
36258;BME280;22294;52.044;4.582;2023-03-18T06:45:32;76341.44;;;-144.37;100.00
36258;BME280;22294;52.044;4.582;2023-03-18T06:47:58;76339.38;;;-144.37;100.00
36258;BME280;22294;52.044;4.582;2023-03-18T06:50:25;76341.44;;;-144.37;100.00
36258;BME280;22294;52.044;4.582;2023-03-18T06:52:50;76345.53;;;-144.37;100.00
36258;BME280;22294;52.044;4.582;2023-03-18T06:55:15;76335.31;;;-144.37;100.00
36258;BME280;22294;52.044;4.582;2023-03-18T06:57:41;76325.06;;;-144.37;100.00
36258;BME280;22294;52.044;4.582;2023-03-18T07:00:07;76329.16;;;-144.37;100.00
36258;BME280;22294;52.044;4.582;2023-03-18T07:02:33;76320.97;;;-144.37;100.00
36258;BME280;22294;52.044;4.582;2023-03-18T07:04:58;76314.84;;;-144.37;100.00
36258;BME280;22294;52.044;4.582;2023-03-18T07:07:24;76312.81;;;-144.37;100.00
36258;BME280;22294;52.044;4.582;2023-03-18T07:09:49;76306.66;;;-144.37;100.00
36258;BME280;22294;52.044;4.582;2023-03-18T07:12:15;76296.44;;;-144.37;100.00
36258;BME280;22294;52.044;4.582;2023-03-18T07:14:40;76298.47;;;-144.37;100.00
36258;BME280;22294;52.044;4.582;2023-03-18T07:17:06;76296.44;;;-144.37;100.00
36258;BME280;22294;52.044;4.582;2023-03-18T07:19:33;76292.34;;;-144.37;100.00
36258;BME280;22294;52.044;4.582;2023-03-18T07:21:59;76282.13;;;-144.37;100.00
36258;BME280;22294;52.044;4.582;2023-03-18T07:24:26;76276.00;;;-144.37;100.00
36258;BME280;22294;52.044;4.582;2023-03-18T07:26:52;76259.63;;;-144.37;100.00
36258;BME280;22294;52.044;4.582;2023-03-18T07:29:18;76253.50;;;-144.37;100.00
36258;BME280;22294;52.044;4.582;2023-03-18T07:31:44;76243.25;;;-144.37;100.00
36258;BME280;22294;52.044;4.582;2023-03-18T07:34:12;76237.13;;;-144.37;100.00
36258;BME280;22294;52.044;4.582;2023-03-18T07:36:39;76235.09;;;-144.37;100.00
36258;BME280;22294;52.044;4.582;2023-03-18T07:39:05;76222.81;;;-144.37;100.00
36258;BME280;22294;52.044;4.582;2023-03-18T07:41:31;76210.53;;;-144.37;100.00
36258;BME280;22294;52.044;4.582;2023-03-18T07:43:56;76198.28;;;-144.37;100.00
36258;BME280;22294;52.044;4.582;2023-03-18T07:46:22;76198.28;;;-144.37;100.00
36258;BME280;22294;52.044;4.582;2023-03-18T07:48:47;76183.94;;;-144.37;100.00
36258;BME280;22294;52.044;4.582;2023-03-18T07:51:14;76177.81;;;-144.37;100.00
36258;BME280;22294;52.044;4.582;2023-03-18T07:53:40;76169.63;;;-144.37;100.00
36258;BME280;22294;52.044;4.582;2023-03-18T07:56:07;76161.47;;;-144.37;100.00
36258;BME280;22294;52.044;4.582;2023-03-18T07:58:34;76155.31;;;-144.37;100.00
36258;BME280;22294;52.044;4.582;2023-03-18T08:00:59;76151.22;;;-144.37;100.00
36258;BME280;22294;52.044;4.582;2023-03-18T08:03:25;76151.22;;;-144.37;100.00
36258;BME280;22294;52.044;4.582;2023-03-18T08:05:50;76136.91;;;-144.37;100.00
36258;BME280;22294;52.044;4.582;2023-03-18T08:08:16;76128.72;;;-144.37;100.00
36258;BME280;22294;52.044;4.582;2023-03-18T08:10:43;76124.66;;;-144.37;100.00
36258;BME280;22294;52.044;4.582;2023-03-18T08:13:08;76118.50;;;-144.37;100.00
36258;BME280;22294;52.044;4.582;2023-03-18T08:15:33;76110.31;;;-144.37;100.00
36258;BME280;22294;52.044;4.582;2023-03-18T08:17:59;76098.06;;;-144.37;100.00
36258;BME280;22294;52.044;4.582;2023-03-18T08:20:25;76089.88;;;-144.37;100.00
36258;BME280;22294;52.044;4.582;2023-03-18T08:22:50;76079.66;;;-144.37;100.00
36258;BME280;22294;52.044;4.582;2023-03-18T08:25:16;76081.69;;;-144.37;100.00
36258;BME280;22294;52.044;4.582;2023-03-18T08:27:46;76069.44;;;-144.37;100.00
36258;BME280;22294;52.044;4.582;2023-03-18T08:30:11;76069.44;;;-144.37;100.00
36258;BME280;22294;52.044;4.582;2023-03-18T08:32:37;76063.28;;;-144.37;100.00
36258;BME280;22294;52.044;4.582;2023-03-18T08:35:03;76055.09;;;-144.37;100.00
36258;BME280;22294;52.044;4.582;2023-03-18T08:37:30;76055.09;;;-144.37;100.00
36258;BME280;22294;52.044;4.582;2023-03-18T08:39:55;76046.94;;;-144.37;100.00
36258;BME280;22294;52.044;4.582;2023-03-18T08:42:20;76048.97;;;-144.37;100.00
36258;BME280;22294;52.044;4.582;2023-03-18T08:44:46;76034.66;;;-144.37;100.00
36258;BME280;22294;52.044;4.582;2023-03-18T08:47:11;76042.84;;;-144.37;100.00
36258;BME280;22294;52.044;4.582;2023-03-18T08:49:36;76046.94;;;-144.37;100.00
36258;BME280;22294;52.044;4.582;2023-03-18T08:52:02;76040.78;;;-144.37;100.00
36258;BME280;22294;52.044;4.582;2023-03-18T08:54:28;76051.03;;;-144.37;100.00
36258;BME280;22294;52.044;4.582;2023-03-18T08:56:53;76057.16;;;-144.37;100.00
36258;BME280;22294;52.044;4.582;2023-03-18T08:59:19;76067.38;;;-144.37;100.00
36258;BME280;22294;52.044;4.582;2023-03-18T09:01:45;76063.28;;;-144.37;100.00
36258;BME280;22294;52.044;4.582;2023-03-18T09:04:13;76063.28;;;-144.37;100.00
36258;BME280;22294;52.044;4.582;2023-03-18T09:06:39;76073.50;;;-144.37;100.00
36258;BME280;22294;52.044;4.582;2023-03-18T09:09:05;76083.75;;;-144.37;100.00
36258;BME280;22294;52.044;4.582;2023-03-18T09:11:30;76091.91;;;-144.37;100.00
36258;BME280;22294;52.044;4.582;2023-03-18T09:13:56;76089.88;;;-144.37;100.00
36258;BME280;22294;52.044;4.582;2023-03-18T09:16:21;76093.97;;;-144.37;100.00
36258;BME280;22294;52.044;4.582;2023-03-18T09:18:46;76106.25;;;-144.37;100.00
36258;BME280;22294;52.044;4.582;2023-03-18T09:21:12;76100.09;;;-144.37;100.00
36258;BME280;22294;52.044;4.582;2023-03-18T09:23:37;76098.06;;;-144.37;100.00
36258;BME280;22294;52.044;4.582;2023-03-18T09:26:03;76093.97;;;-144.37;100.00
36258;BME280;22294;52.044;4.582;2023-03-18T09:28:29;76083.75;;;-144.37;100.00
36258;BME280;22294;52.044;4.582;2023-03-18T09:30:55;76077.59;;;-144.37;100.00
36258;BME280;22294;52.044;4.582;2023-03-18T09:33:21;76059.19;;;-144.37;100.00
36258;BME280;22294;52.044;4.582;2023-03-18T09:35:47;76044.88;;;-144.37;100.00
36258;BME280;22294;52.044;4.582;2023-03-18T09:38:15;76032.63;;;-144.37;100.00
36258;BME280;22294;52.044;4.582;2023-03-18T09:41:00;76022.38;;;-144.37;98.78
36258;BME280;22294;52.044;4.582;2023-03-18T09:43:35;76022.38;;;-144.37;98.80
36258;BME280;22294;52.044;4.582;2023-03-18T09:46:05;76018.31;;;-144.37;98.84
36258;BME280;22294;52.044;4.582;2023-03-18T09:48:47;75981.50;;;-144.37;98.26
36258;BME280;22294;52.044;4.582;2023-03-18T09:54:10;75928.31;;;-144.37;94.05
36258;BME280;22294;52.044;4.582;2023-03-18T09:56:37;75926.28;;;-144.37;93.80
36258;BME280;22294;52.044;4.582;2023-03-18T10:01:34;75928.31;;;-144.37;93.49
36258;BME280;22294;52.044;4.582;2023-03-18T10:04:05;75940.59;;;-144.37;92.17
36258;BME280;22294;52.044;4.582;2023-03-18T10:06:36;75940.59;;;-144.37;93.36
36258;BME280;22294;52.044;4.582;2023-03-18T10:09:24;75938.53;;;-144.37;93.52
36258;BME280;22294;52.044;4.582;2023-03-18T10:11:54;75940.59;;;-144.37;92.23
36258;BME280;22294;52.044;4.582;2023-03-18T10:14:33;75936.50;;;-144.37;93.22
36258;BME280;22294;52.044;4.582;2023-03-18T10:19:45;75936.50;;;-144.37;92.17
36258;BME280;22294;52.044;4.582;2023-03-18T10:24:57;75918.09;;;-144.37;91.98
36258;BME280;22294;52.044;4.582;2023-03-18T10:27:44;75905.81;;;-144.37;91.61
36258;BME280;22294;52.044;4.582;2023-03-18T10:33:05;75916.03;;;-144.37;90.59
36258;BME280;22294;52.044;4.582;2023-03-18T10:35:44;75905.81;;;-144.37;90.99
36258;BME280;22294;52.044;4.582;2023-03-18T10:38:28;75899.69;;;-144.37;90.57
36258;BME280;22294;52.044;4.582;2023-03-18T10:40:54;75905.81;;;-144.37;91.16
36258;BME280;22294;52.044;4.582;2023-03-18T10:43:23;75911.94;;;-144.37;91.33
36258;BME280;22294;52.044;4.582;2023-03-18T10:46:04;75928.31;;;-144.37;90.63
36258;BME280;22294;52.044;4.582;2023-03-18T10:48:34;75928.31;;;-144.37;91.29
36258;BME280;22294;52.044;4.582;2023-03-18T10:53:43;75938.53;;;-144.37;90.74
36258;BME280;22294;52.044;4.582;2023-03-18T10:56:12;75930.38;;;-144.37;91.04
36258;BME280;22294;52.044;4.582;2023-03-18T10:58:39;75944.69;;;-144.37;90.95
36258;BME280;22294;52.044;4.582;2023-03-18T11:01:06;75936.50;;;-144.37;90.41
36258;BME280;22294;52.044;4.582;2023-03-18T11:03:45;75932.41;;;-144.37;89.99
36258;BME280;22294;52.044;4.582;2023-03-18T11:06:21;75936.50;;;-144.37;89.26
36258;BME280;22294;52.044;4.582;2023-03-18T11:08:49;75936.50;;;-144.37;89.12
36258;BME280;22294;52.044;4.582;2023-03-18T11:11:29;75944.69;;;-144.37;89.46
36258;BME280;22294;52.044;4.582;2023-03-18T11:14:00;75948.75;;;-144.37;91.28
36258;BME280;22294;52.044;4.582;2023-03-18T11:16:39;75948.75;;;-144.37;92.81
36258;BME280;22294;52.044;4.582;2023-03-18T11:19:38;75948.75;;;-144.37;94.18
36258;BME280;22294;52.044;4.582;2023-03-18T11:24:37;75952.84;;;-144.37;95.12
36258;BME280;22294;52.044;4.582;2023-03-18T11:29:40;75963.09;;;-144.37;93.70
36258;BME280;22294;52.044;4.582;2023-03-18T11:32:24;75963.09;;;-144.37;91.54
36258;BME280;22294;52.044;4.582;2023-03-18T11:34:54;75959.00;;;-144.37;92.21
36258;BME280;22294;52.044;4.582;2023-03-18T11:37:26;75959.00;;;-144.37;91.88
36258;BME280;22294;52.044;4.582;2023-03-18T11:39:51;75946.72;;;-144.37;91.09
36258;BME280;22294;52.044;4.582;2023-03-18T11:42:19;75936.50;;;-144.37;91.04
36258;BME280;22294;52.044;4.582;2023-03-18T11:44:46;75924.22;;;-144.37;91.42
36258;BME280;22294;52.044;4.582;2023-03-18T11:47:21;75922.19;;;-144.37;90.77
36258;BME280;22294;52.044;4.582;2023-03-18T11:49:48;75924.22;;;-144.37;88.41
36258;BME280;22294;52.044;4.582;2023-03-18T11:52:34;75914.00;;;-144.37;88.32
36258;BME280;22294;52.044;4.582;2023-03-18T11:58:29;75899.69;;;-144.37;88.17
36258;BME280;22294;52.044;4.582;2023-03-18T12:01:09;75885.38;;;-144.37;88.15
36258;BME280;22294;52.044;4.582;2023-03-18T12:08:45;75850.59;;;-144.37;86.18
36258;BME280;22294;52.044;4.582;2023-03-18T12:14:23;75821.97;;;-144.37;85.00
36258;BME280;22294;52.044;4.582;2023-03-18T12:17:14;75819.94;;;-144.37;83.11
36258;BME280;22294;52.044;4.582;2023-03-18T12:20:03;75809.72;;;-144.37;83.24
36258;BME280;22294;52.044;4.582;2023-03-18T12:22:49;75817.88;;;-144.37;83.15
36258;BME280;22294;52.044;4.582;2023-03-18T12:25:57;75793.34;;;-144.37;83.64
36258;BME280;22294;52.044;4.582;2023-03-18T12:28:39;75795.38;;;-144.37;83.35
36258;BME280;22294;52.044;4.582;2023-03-18T12:31:35;75795.38;;;-144.37;81.87
36258;BME280;22294;52.044;4.582;2023-03-18T12:34:14;75795.38;;;-144.37;80.77
36258;BME280;22294;52.044;4.582;2023-03-18T12:42:00;75781.06;;;-144.37;79.03
36258;BME280;22294;52.044;4.582;2023-03-18T12:44:36;75772.91;;;-144.37;78.48
36258;BME280;22294;52.044;4.582;2023-03-18T12:47:10;75760.63;;;-144.37;77.65
36258;BME280;22294;52.044;4.582;2023-03-18T12:50:01;75752.44;;;-144.37;76.76
36258;BME280;22294;52.044;4.582;2023-03-18T12:52:36;75750.41;;;-144.37;76.08
36258;BME280;22294;52.044;4.582;2023-03-18T12:55:30;75752.44;;;-144.37;77.41
36258;BME280;22294;52.044;4.582;2023-03-18T12:58:00;75756.53;;;-144.37;77.33
36258;BME280;22294;52.044;4.582;2023-03-18T13:00:38;75742.22;;;-144.37;77.29
36258;BME280;22294;52.044;4.582;2023-03-18T13:06:02;75721.78;;;-144.37;76.67
36258;BME280;22294;52.044;4.582;2023-03-18T13:11:30;75687.00;;;-144.37;74.55
36258;BME280;22294;52.044;4.582;2023-03-18T13:16:47;75674.75;;;-144.37;73.73
36258;BME280;22294;52.044;4.582;2023-03-18T13:19:14;75674.75;;;-144.37;73.15
36258;BME280;22294;52.044;4.582;2023-03-18T13:21:42;75672.69;;;-144.37;73.14
36258;BME280;22294;52.044;4.582;2023-03-18T13:27:15;75709.50;;;-144.37;70.71
36258;BME280;22294;52.044;4.582;2023-03-18T13:33:07;75678.81;;;-144.37;71.52
36258;BME280;22294;52.044;4.582;2023-03-18T13:38:37;75658.38;;;-144.37;71.06
36258;BME280;22294;52.044;4.582;2023-03-18T13:43:41;75644.06;;;-144.37;69.67